Time;durP1;ratioP1;P1;durP2;ratioP2;P2;SDS_P1;SDS_P2;PMS_P1;PMS_P2;Temp;Humidity;BMP_temperature;BMP_pressure;BME280_temperature;BME280_humidity;BME280_pressure;Samples;Min_cycle;Max_cycle;Signal;HPM_P1;HPM_P2
2023/06/04 00:00:51;;;;;;;;;;;;;;;17.26;100.00;95318.50;5137271;27;1024;-56
2023/06/04 00:03:17;;;;;;;;;;;;;;;17.26;100.00;95322.03;5136942;27;1010;-57
2023/06/04 00:05:43;;;;;;;;;;;;;;;17.24;100.00;95328.69;5137069;27;1036;-56
2023/06/04 00:08:09;;;;;;;;;;;;;;;17.29;100.00;95316.25;5137007;27;964;-57
2023/06/04 00:10:35;;;;;;;;;;;;;;;17.40;100.00;95316.72;5137068;27;1033;-57
2023/06/04 00:13:01;;;;;;;;;;;;;;;17.36;100.00;95321.69;5136991;27;2004;-56
2023/06/04 00:15:27;;;;;;;;;;;;;;;17.35;100.00;95326.25;5136905;27;1050;-57
2023/06/04 00:17:53;;;;;;;;;;;;;;;17.41;100.00;95323.78;5136840;27;1089;-57
2023/06/04 00:20:20;;;;;;;;;;;;;;;17.49;100.00;95326.31;5136578;27;1107;-57
2023/06/04 00:22:46;;;;;;;;;;;;;;;17.50;100.00;95328.00;5136594;27;1203;-57
2023/06/04 00:25:12;;;;;;;;;;;;;;;17.50;100.00;95320.72;5136656;27;1157;-57
2023/06/04 00:27:37;;;;;;;;;;;;;;;17.52;100.00;95325.94;5136342;27;1423;-57
2023/06/04 00:30:04;;;;;;;;;;;;;;;17.51;100.00;95327.81;5136493;27;1045;-57
2023/06/04 00:32:30;;;;;;;;;;;;;;;17.51;100.00;95324.25;5136588;27;1028;-56
2023/06/04 00:34:57;;;;;;;;;;;;;;;17.46;100.00;95324.03;5136498;27;1906;-57
2023/06/04 00:37:24;;;;;;;;;;;;;;;17.42;100.00;95326.28;5136233;27;1109;-57
2023/06/04 00:39:50;;;;;;;;;;;;;;;17.41;100.00;95331.91;5136411;27;969;-56
2023/06/04 00:42:17;;;;;;;;;;;;;;;17.30;100.00;95327.88;5136292;27;980;-57
2023/06/04 00:44:45;;;;;;;;;;;;;;;17.16;100.00;95333.19;5136136;27;1104;-57
2023/06/04 00:47:15;;;;;;;;;;;;;;;17.07;100.00;95323.56;5136291;27;1086;-57
2023/06/04 00:49:41;;;;;;;;;;;;;;;17.07;100.00;95331.66;5136153;27;1044;-57
2023/06/04 00:52:13;;;;;;;;;;;;;;;17.04;100.00;95328.56;5136223;27;1043;-57
2023/06/04 00:54:40;;;;;;;;;;;;;;;17.00;100.00;95327.25;5136214;27;1988;-57
2023/06/04 00:57:08;;;;;;;;;;;;;;;17.14;100.00;95329.03;5136253;27;1191;-57
2023/06/04 00:59:36;;;;;;;;;;;;;;;17.30;100.00;95333.28;5135712;27;1093;-57
2023/06/04 01:02:06;;;;;;;;;;;;;;;17.42;100.00;95325.47;5136116;27;968;-57
2023/06/04 01:04:36;;;;;;;;;;;;;;;17.37;100.00;95331.47;5135807;27;992;-57
2023/06/04 01:07:04;;;;;;;;;;;;;;;17.35;100.00;95328.13;5135874;27;1061;-57
2023/06/04 01:09:33;;;;;;;;;;;;;;;17.33;100.00;95330.19;5135900;27;981;-57
2023/06/04 01:12:01;;;;;;;;;;;;;;;17.29;100.00;95327.03;5135815;27;1020;-57
2023/06/04 01:14:29;;;;;;;;;;;;;;;17.22;100.00;95326.16;5135583;27;1898;-57
2023/06/04 01:17:02;;;;;;;;;;;;;;;17.23;100.00;95327.84;5135765;27;1028;-57
2023/06/04 01:19:51;;;;;;;;;;;;;;;17.15;100.00;95330.72;5135352;27;1097;-57
2023/06/04 01:22:23;;;;;;;;;;;;;;;16.93;100.00;95327.22;5135677;27;1056;-57
2023/06/04 01:24:52;;;;;;;;;;;;;;;16.84;100.00;95323.81;5117465;27;1236;-57
2023/06/04 01:27:19;;;;;;;;;;;;;;;16.79;100.00;95326.25;5135459;27;1761;-56
2023/06/04 01:29:45;;;;;;;;;;;;;;;16.89;100.00;95326.78;5135558;27;1011;-57
2023/06/04 01:32:11;;;;;;;;;;;;;;;16.98;100.00;95313.97;5135160;27;1050;-57
2023/06/04 01:34:44;;;;;;;;;;;;;;;16.97;100.00;95318.53;5135382;27;1975;-58
2023/06/04 01:37:11;;;;;;;;;;;;;;;17.06;100.00;95318.38;5135171;27;999;-57
2023/06/04 01:39:37;;;;;;;;;;;;;;;17.02;100.00;95319.81;5134607;27;1050;-57
2023/06/04 01:42:03;;;;;;;;;;;;;;;16.94;100.00;95323.47;5135197;27;1047;-57
2023/06/04 01:44:29;;;;;;;;;;;;;;;16.94;100.00;95318.94;5135243;27;992;-57
2023/06/04 01:46:55;;;;;;;;;;;;;;;16.94;100.00;95318.94;5135081;27;984;-56
2023/06/04 01:49:21;;;;;;;;;;;;;;;16.90;100.00;95317.66;5135297;27;1252;-57
2023/06/04 01:51:47;;;;;;;;;;;;;;;16.77;100.00;95309.44;5135059;27;1052;-57
2023/06/04 01:54:13;;;;;;;;;;;;;;;16.79;100.00;95312.75;5135047;27;1918;-57
2023/06/04 01:56:39;;;;;;;;;;;;;;;16.67;100.00;95319.72;5134976;27;1057;-57
2023/06/04 01:59:05;;;;;;;;;;;;;;;16.73;100.00;95322.47;5134905;27;985;-57
2023/06/04 02:01:31;;;;;;;;;;;;;;;16.78;100.00;95327.28;5134541;27;1054;-57
2023/06/04 02:03:58;;;;;;;;;;;;;;;16.78;100.00;95324.56;5134967;27;937;-58
2023/06/04 02:06:24;;;;;;;;;;;;;;;16.71;100.00;95323.69;5134545;27;1104;-57
2023/06/04 02:08:53;;;;;;;;;;;;;;;16.51;100.00;95324.34;5134792;27;1036;-58
2023/06/04 02:11:19;;;;;;;;;;;;;;;16.34;100.00;95331.03;5134713;27;1024;-58
2023/06/04 02:13:45;;;;;;;;;;;;;;;16.35;100.00;95330.84;5134527;27;1905;-57
2023/06/04 02:16:11;;;;;;;;;;;;;;;16.41;100.00;95329.25;5134408;27;1061;-57
2023/06/04 02:18:37;;;;;;;;;;;;;;;16.52;100.00;95336.84;5134571;27;1169;-58
2023/06/04 02:21:04;;;;;;;;;;;;;;;16.57;100.00;95344.34;5134442;27;1037;-57
2023/06/04 02:23:30;;;;;;;;;;;;;;;16.62;100.00;95347.31;5134434;27;1153;-57
2023/06/04 02:25:56;;;;;;;;;;;;;;;16.60;100.00;95341.25;5134399;27;1088;-57
2023/06/04 02:28:22;;;;;;;;;;;;;;;16.69;100.00;95340.06;5134410;27;1408;-57
2023/06/04 02:30:48;;;;;;;;;;;;;;;16.73;100.00;95349.47;5134213;27;1217;-57
2023/06/04 02:33:14;;;;;;;;;;;;;;;16.70;100.00;95351.72;5134188;27;1984;-57
2023/06/04 02:35:40;;;;;;;;;;;;;;;16.54;100.00;95350.97;5134434;28;1032;-57
2023/06/04 02:38:07;;;;;;;;;;;;;;;16.42;100.00;95354.38;5134440;28;1032;-57
2023/06/04 02:40:33;;;;;;;;;;;;;;;16.29;100.00;95355.06;5134180;28;1037;-57
2023/06/04 02:42:58;;;;;;;;;;;;;;;16.24;100.00;95360.19;5134529;28;1032;-57
2023/06/04 02:45:25;;;;;;;;;;;;;;;16.22;100.00;95363.09;5134255;28;1005;-57
2023/06/04 02:47:51;;;;;;;;;;;;;;;16.22;100.00;95370.34;5134191;28;936;-57
2023/06/04 02:50:17;;;;;;;;;;;;;;;16.46;100.00;95369.97;5134472;28;993;-56
2023/06/04 02:52:43;;;;;;;;;;;;;;;16.46;100.00;95372.66;5136730;27;1293;-56
2023/06/04 02:55:11;;;;;;;;;;;;;;;16.69;100.00;95375.16;5138369;27;1986;-57
2023/06/04 02:57:39;;;;;;;;;;;;;;;16.72;100.00;95371.25;5138184;27;1057;-57
2023/06/04 03:00:11;;;;;;;;;;;;;;;16.76;100.00;95378.78;5138473;27;1036;-57
2023/06/04 03:02:40;;;;;;;;;;;;;;;16.84;100.00;95379.69;5138271;27;1028;-57
2023/06/04 03:05:07;;;;;;;;;;;;;;;16.96;100.00;95380.84;5138510;27;989;-56
2023/06/04 03:07:33;;;;;;;;;;;;;;;16.97;100.00;95379.81;5138286;27;1032;-57
2023/06/04 03:09:59;;;;;;;;;;;;;;;17.00;100.00;95386.69;5138052;27;1100;-56
2023/06/04 03:12:25;;;;;;;;;;;;;;;17.04;100.00;95388.81;5137969;27;1020;-57
2023/06/04 03:14:51;;;;;;;;;;;;;;;16.92;100.00;95380.41;5137811;27;2024;-57
2023/06/04 03:17:17;;;;;;;;;;;;;;;16.83;100.00;95388.81;5138105;27;1040;-57
2023/06/04 03:19:43;;;;;;;;;;;;;;;16.73;100.00;95389.13;5137733;27;1264;-56
2023/06/04 03:22:10;;;;;;;;;;;;;;;16.71;100.00;95389.34;5138133;27;1000;-56
2023/06/04 03:24:37;;;;;;;;;;;;;;;16.79;100.00;95394.59;5137640;27;1169;-57
2023/06/04 03:27:04;;;;;;;;;;;;;;;16.94;100.00;95399.09;5137630;27;969;-57
2023/06/04 03:29:32;;;;;;;;;;;;;;;16.93;100.00;95403.66;5137247;27;1424;-57
2023/06/04 03:31:59;;;;;;;;;;;;;;;16.78;100.00;95395.59;5137489;27;1037;-58
2023/06/04 03:34:25;;;;;;;;;;;;;;;16.75;100.00;95393.31;5137340;27;1910;-57
2023/06/04 03:36:54;;;;;;;;;;;;;;;16.70;100.00;95397.63;5119436;27;1023;-58
2023/06/04 03:39:21;;;;;;;;;;;;;;;16.77;100.00;95402.06;5137702;27;1023;-57
2023/06/04 03:41:47;;;;;;;;;;;;;;;16.87;100.00;95401.75;5137299;27;1068;-57
2023/06/04 03:44:14;;;;;;;;;;;;;;;16.98;100.00;95406.63;5137666;27;1048;-57
2023/06/04 03:46:41;;;;;;;;;;;;;;;17.08;100.00;95410.88;5137344;27;969;-58
2023/06/04 03:49:07;;;;;;;;;;;;;;;17.13;100.00;95409.25;5137264;27;1045;-57
2023/06/04 03:51:34;;;;;;;;;;;;;;;17.21;100.00;95407.44;5136995;27;1037;-57
2023/06/04 03:54:01;;;;;;;;;;;;;;;17.21;100.00;95405.56;5137230;27;1934;-57
2023/06/04 03:56:28;;;;;;;;;;;;;;;17.22;100.00;95407.22;5137092;27;1124;-57
2023/06/04 04:02:53;;;;;;;;;;;;;;;17.07;100.00;95412.72;5119368;27;1251;-51
2023/06/04 04:05:19;;;;;;;;;;;;;;;17.07;100.00;95414.59;5134487;28;1601;-51
2023/06/04 04:07:46;;;;;;;;;;;;;;;17.15;100.00;95412.59;5134622;28;1592;-51
2023/06/04 04:10:12;;;;;;;;;;;;;;;17.16;100.00;95424.22;5135069;28;1051;-51
2023/06/04 04:12:38;;;;;;;;;;;;;;;17.14;100.00;95419.00;5134782;28;1198;-51
2023/06/04 04:15:05;;;;;;;;;;;;;;;17.12;100.00;95422.94;5129387;28;2470;-51
2023/06/04 04:17:31;;;;;;;;;;;;;;;17.18;100.00;95416.75;5130108;28;1610;-51
2023/06/04 04:19:57;;;;;;;;;;;;;;;17.12;100.00;95428.34;5135027;28;1056;-51
2023/06/04 04:22:23;;;;;;;;;;;;;;;17.17;100.00;95420.50;5134809;28;1028;-51
2023/06/04 04:24:49;;;;;;;;;;;;;;;17.18;100.00;95422.16;5134387;28;1031;-51
2023/06/04 04:27:15;;;;;;;;;;;;;;;17.23;100.00;95429.69;5134751;28;1307;-51
2023/06/04 04:29:43;;;;;;;;;;;;;;;17.28;100.00;95428.09;5134646;28;1354;-51
2023/06/04 04:32:11;;;;;;;;;;;;;;;17.32;100.00;95433.91;5132694;28;3029;-51
2023/06/04 04:34:43;;;;;;;;;;;;;;;17.40;100.00;95439.19;5133582;28;1926;-51
2023/06/04 04:37:09;;;;;;;;;;;;;;;17.30;100.00;95431.41;5134437;28;1181;-51
2023/06/04 04:39:38;;;;;;;;;;;;;;;17.26;100.00;95427.41;5133087;28;2896;-51
2023/06/04 04:42:04;;;;;;;;;;;;;;;17.35;100.00;95436.22;5133806;28;1294;-51
2023/06/04 04:44:30;;;;;;;;;;;;;;;17.42;100.00;95442.53;5134803;28;2048;-51
2023/06/04 04:46:56;;;;;;;;;;;;;;;17.47;100.00;95445.47;5134830;28;1267;-51
2023/06/04 04:49:22;;;;;;;;;;;;;;;17.41;100.00;95437.31;5135372;28;1063;-51
2023/06/04 04:51:48;;;;;;;;;;;;;;;17.41;100.00;95434.59;5135276;28;972;-51
2023/06/04 04:54:14;;;;;;;;;;;;;;;17.39;100.00;95442.91;5135345;28;1918;-51
2023/06/04 04:56:40;;;;;;;;;;;;;;;17.42;100.00;95439.00;5135177;28;1250;-51
2023/06/04 04:59:06;;;;;;;;;;;;;;;17.35;100.00;95439.75;5133257;28;1276;-52
2023/06/04 05:01:32;;;;;;;;;;;;;;;17.44;100.00;95445.03;5133268;28;2306;-51
2023/06/04 05:03:58;;;;;;;;;;;;;;;17.44;100.00;95447.72;5092190;27;1158790;-51
2023/06/04 05:06:24;;;;;;;;;;;;;;;17.35;100.00;95441.63;5136061;27;976;-51
2023/06/04 05:08:50;;;;;;;;;;;;;;;17.41;100.00;95448.13;5135509;27;1647;-51
2023/06/04 05:11:16;;;;;;;;;;;;;;;17.25;100.00;95441.97;5135088;27;1138;-51
2023/06/04 05:13:42;;;;;;;;;;;;;;;17.26;100.00;95442.81;5135189;27;1918;-51
2023/06/04 05:16:11;;;;;;;;;;;;;;;17.14;100.00;95445.19;5135058;27;1051;-51
2023/06/04 05:18:40;;;;;;;;;;;;;;;17.29;100.00;95451.34;5134904;27;1017;-51
2023/06/04 05:21:06;;;;;;;;;;;;;;;17.32;100.00;95448.28;5135421;27;1055;-51
2023/06/04 05:23:34;;;;;;;;;;;;;;;17.22;100.00;95447.75;5135328;27;1137;-51
2023/06/04 05:26:01;;;;;;;;;;;;;;;17.24;100.00;95448.38;5133680;27;1240;-51
2023/06/04 05:28:27;;;;;;;;;;;;;;;17.29;100.00;95458.63;5135256;27;1099;-51
2023/06/04 05:30:58;;;;;;;;;;;;;;;17.52;100.00;95459.22;5116921;27;1593;-51
2023/06/04 05:33:25;;;;;;;;;;;;;;;17.64;100.00;95467.66;5135317;27;1914;-51
2023/06/04 05:35:59;;;;;;;;;;;;;;;17.66;100.00;95465.56;5135181;27;1054;-51
2023/06/04 05:38:26;;;;;;;;;;;;;;;17.84;100.00;95469.63;5135476;27;1032;-51
2023/06/04 05:40:53;;;;;;;;;;;;;;;17.90;100.00;95467.00;5135034;27;991;-51
2023/06/04 05:43:19;;;;;;;;;;;;;;;17.90;100.00;95483.22;5133900;27;2219;-51
2023/06/04 05:45:46;;;;;;;;;;;;;;;17.91;100.00;95482.19;5133626;27;2824;-51
2023/06/04 05:48:12;;;;;;;;;;;;;;;18.03;100.00;95489.75;5135057;27;1262;-51
2023/06/04 05:50:38;;;;;;;;;;;;;;;18.09;100.00;95487.06;5135148;27;1019;-51
2023/06/04 05:53:04;;;;;;;;;;;;;;;18.08;100.00;95490.84;5134919;27;1208;-51
2023/06/04 05:55:30;;;;;;;;;;;;;;;18.08;100.00;95489.97;5134827;27;1913;-51
2023/06/04 05:57:56;;;;;;;;;;;;;;;18.16;100.00;95495.25;5134690;27;942;-51
2023/06/04 06:00:22;;;;;;;;;;;;;;;18.22;100.00;95491.72;5133905;27;1994;-51
2023/06/04 06:02:49;;;;;;;;;;;;;;;18.29;100.00;95513.44;5134616;27;1076;-51
2023/06/04 06:05:15;;;;;;;;;;;;;;;18.34;100.00;95505.53;5134989;27;985;-51
2023/06/04 06:07:41;;;;;;;;;;;;;;;18.30;100.00;95504.25;5134225;27;1456;-51
2023/06/04 06:10:08;;;;;;;;;;;;;;;18.39;100.00;95508.47;5134848;27;984;-51
2023/06/04 06:12:34;;;;;;;;;;;;;;;18.44;100.00;95507.84;5134526;27;960;-51
2023/06/04 06:15:00;;;;;;;;;;;;;;;18.36;99.50;95519.69;5134705;27;1917;-51
2023/06/04 06:17:26;;;;;;;;;;;;;;;18.33;100.00;95514.69;5134578;27;1060;-51
2023/06/04 06:19:52;;;;;;;;;;;;;;;18.44;98.63;95514.13;5134321;27;1107;-51
2023/06/04 06:22:18;;;;;;;;;;;;;;;18.41;99.25;95519.94;5134336;27;1404;-51
2023/06/04 06:24:45;;;;;;;;;;;;;;;18.53;100.00;95521.03;5134155;27;1060;-51
2023/06/04 06:27:10;;;;;;;;;;;;;;;18.60;100.00;95512.09;5134008;27;1170;-50
2023/06/04 06:29:36;;;;;;;;;;;;;;;18.78;97.55;95509.69;5134575;27;1064;-51
2023/06/04 06:32:03;;;;;;;;;;;;;;;18.88;96.60;95514.75;5134265;27;1087;-51
2023/06/04 06:34:29;;;;;;;;;;;;;;;18.95;96.31;95512.03;5134484;27;1986;-51
2023/06/04 06:36:55;;;;;;;;;;;;;;;19.01;97.29;95513.91;5133946;27;1866;-51
2023/06/04 06:39:21;;;;;;;;;;;;;;;19.04;96.26;95524.34;5134167;28;1877;-51
2023/06/04 06:41:47;;;;;;;;;;;;;;;19.08;95.70;95521.06;5134220;28;1127;-51
2023/06/04 06:44:13;;;;;;;;;;;;;;;18.98;95.03;95527.88;5134547;28;973;-51
2023/06/04 06:46:39;;;;;;;;;;;;;;;18.94;98.67;95526.63;5134105;28;1276;-50
2023/06/04 06:49:05;;;;;;;;;;;;;;;19.00;97.81;95529.34;5134363;28;957;-50
2023/06/04 06:51:31;;;;;;;;;;;;;;;19.06;97.56;95539.38;5134143;28;1032;-51
2023/06/04 06:53:57;;;;;;;;;;;;;;;19.20;97.81;95533.97;5134081;28;1968;-51
2023/06/04 06:56:23;;;;;;;;;;;;;;;19.26;97.70;95534.00;5133857;28;1078;-51
2023/06/04 06:58:49;;;;;;;;;;;;;;;19.39;93.48;95533.19;5134179;28;1036;-51
2023/06/04 07:01:15;;;;;;;;;;;;;;;19.49;93.35;95530.88;5134222;28;984;-51
2023/06/04 07:03:41;;;;;;;;;;;;;;;19.68;93.49;95529.22;5133767;28;1210;-50
2023/06/04 07:06:07;;;;;;;;;;;;;;;19.61;92.41;95532.97;5134132;28;1050;-50
2023/06/04 07:08:33;;;;;;;;;;;;;;;19.56;94.10;95530.91;5133775;28;1650;-51
2023/06/04 07:11:01;;;;;;;;;;;;;;;19.61;91.85;95541.94;5134231;28;1272;-51
2023/06/04 07:13:27;;;;;;;;;;;;;;;19.63;92.18;95536.31;5134010;28;1914;-51
2023/06/04 07:15:53;;;;;;;;;;;;;;;19.86;91.80;95538.63;5133800;28;1032;-51
2023/06/04 07:18:19;;;;;;;;;;;;;;;19.85;90.79;95542.41;5134222;28;1027;-51
2023/06/04 07:20:45;;;;;;;;;;;;;;;19.85;90.51;95545.94;5133995;28;1048;-51
2023/06/04 07:23:11;;;;;;;;;;;;;;;19.99;90.94;95548.66;5133798;28;1028;-51
2023/06/04 07:25:37;;;;;;;;;;;;;;;20.01;87.84;95546.56;5133760;28;989;-51
2023/06/04 07:28:04;;;;;;;;;;;;;;;20.20;88.21;95547.59;5133452;28;1557;-51
2023/06/04 07:30:33;;;;;;;;;;;;;;;20.07;83.41;95551.16;5134043;28;1033;-51
2023/06/04 07:33:00;;;;;;;;;;;;;;;20.24;86.08;95552.41;5133919;28;973;-51
2023/06/04 07:35:26;;;;;;;;;;;;;;;20.51;87.06;95551.47;5133655;28;1906;-51
2023/06/04 07:37:52;;;;;;;;;;;;;;;20.65;87.07;95555.88;5116463;27;1061;-51
2023/06/04 07:40:18;;;;;;;;;;;;;;;20.61;88.13;95555.44;5137808;27;977;-51
2023/06/04 07:42:45;;;;;;;;;;;;;;;20.54;87.38;95560.03;5137467;27;1186;-51
2023/06/04 07:45:11;;;;;;;;;;;;;;;20.51;87.41;95560.47;5137592;27;1047;-51
2023/06/04 07:47:37;;;;;;;;;;;;;;;20.69;89.26;95561.72;5137052;27;1095;-51
2023/06/04 07:50:03;;;;;;;;;;;;;;;20.90;87.47;95558.69;5137283;27;1115;-51
2023/06/04 07:52:30;;;;;;;;;;;;;;;20.86;85.01;95554.72;5137601;27;1003;-51
2023/06/04 07:54:56;;;;;;;;;;;;;;;20.75;86.64;95560.84;5137299;27;1996;-51
2023/06/04 07:57:22;;;;;;;;;;;;;;;20.82;85.94;95556.22;5137002;27;1248;-51
2023/06/04 07:59:48;;;;;;;;;;;;;;;20.80;87.53;95561.88;5137134;27;1064;-51
2023/06/04 08:02:14;;;;;;;;;;;;;;;20.92;87.19;95559.28;5136750;27;1099;-51
2023/06/04 08:04:40;;;;;;;;;;;;;;;20.91;86.22;95562.25;5137285;27;1048;-51
2023/06/04 08:07:06;;;;;;;;;;;;;;;20.81;85.69;95558.13;5136868;27;1229;-51
2023/06/04 08:09:32;;;;;;;;;;;;;;;20.83;83.72;95566.03;5136806;27;1090;-51
2023/06/04 08:11:59;;;;;;;;;;;;;;;20.88;81.08;95563.50;5136920;27;1051;-51
2023/06/04 08:14:27;;;;;;;;;;;;;;;20.97;83.22;95566.81;5136822;27;1902;-51
2023/06/04 08:16:53;;;;;;;;;;;;;;;21.20;82.98;95567.13;5136595;27;1054;-51
2023/06/04 08:19:19;;;;;;;;;;;;;;;21.07;79.37;95564.47;5136843;27;1121;-51
2023/06/04 08:21:47;;;;;;;;;;;;;;;20.98;79.76;95565.75;5136971;27;1165;-51
2023/06/04 08:24:13;;;;;;;;;;;;;;;21.19;80.43;95568.19;5136909;27;960;-51
2023/06/04 08:26:39;;;;;;;;;;;;;;;21.23;80.20;95574.84;5135899;27;1173;-51
2023/06/04 08:29:05;;;;;;;;;;;;;;;21.30;81.90;95568.53;5136663;27;973;-51
2023/06/04 08:31:31;;;;;;;;;;;;;;;21.42;81.02;95564.91;5136418;27;1048;-51
2023/06/04 08:33:57;;;;;;;;;;;;;;;21.39;78.76;95568.03;5136339;27;1984;-51
2023/06/04 08:36:23;;;;;;;;;;;;;;;21.60;78.22;95580.50;5135936;27;1309;-51
2023/06/04 08:38:50;;;;;;;;;;;;;;;21.52;76.58;95567.16;5136267;27;1040;-51
2023/06/04 08:41:31;;;;;;;;;;;;;;;21.38;77.49;95573.69;5136520;27;1222;-51
2023/06/04 08:43:57;;;;;;;;;;;;;;;21.32;82.61;95578.13;5136381;27;1024;-51
2023/06/04 08:46:25;;;;;;;;;;;;;;;21.40;78.84;95566.19;5136173;27;1297;-51
2023/06/04 08:48:51;;;;;;;;;;;;;;;21.92;79.58;95564.16;5135448;27;1020;-50
2023/06/04 08:51:17;;;;;;;;;;;;;;;22.15;75.74;95565.41;5135784;27;1056;-51
2023/06/04 08:53:47;;;;;;;;;;;;;;;22.32;74.35;95563.81;5136242;27;1909;-51
2023/06/04 08:56:13;;;;;;;;;;;;;;;22.33;77.66;95564.63;5135746;27;1072;-50
2023/06/04 08:58:40;;;;;;;;;;;;;;;22.51;74.85;95566.56;5136176;27;1286;-51
2023/06/04 09:01:07;;;;;;;;;;;;;;;22.36;75.75;95575.91;5136193;27;1044;-51
2023/06/04 09:03:33;;;;;;;;;;;;;;;22.49;76.52;95571.41;5135618;27;1071;-51
2023/06/04 09:05:59;;;;;;;;;;;;;;;22.23;73.47;95565.97;5136105;27;1067;-51
2023/06/04 09:08:26;;;;;;;;;;;;;;;22.33;77.56;95570.09;5135445;27;1030;-51
2023/06/04 09:10:55;;;;;;;;;;;;;;;22.52;74.81;95568.22;5135761;27;1000;-51
2023/06/04 09:13:21;;;;;;;;;;;;;;;22.77;75.36;95565.44;5135632;27;1079;-51
2023/06/04 09:16:00;;;;;;;;;;;;;;;22.72;74.18;95573.47;5135465;27;1886;-51
2023/06/04 09:18:26;;;;;;;;;;;;;;;22.73;76.16;95564.25;5135601;27;1204;-51
2023/06/04 09:21:06;;;;;;;;;;;;;;;22.79;75.97;95569.59;5135506;27;1028;-51
2023/06/04 09:23:36;;;;;;;;;;;;;;;22.86;75.06;95571.41;5135698;27;1047;-51
2023/06/04 09:26:11;;;;;;;;;;;;;;;23.14;74.90;95563.53;5135679;27;1258;-51
2023/06/04 09:28:41;;;;;;;;;;;;;;;23.24;76.05;95557.53;5115343;27;1607;-50
2023/06/04 09:31:16;;;;;;;;;;;;;;;23.58;73.98;95561.47;5135141;27;1999;-51
2023/06/04 09:33:47;;;;;;;;;;;;;;;23.34;70.12;95568.72;5135077;27;1925;-50
2023/06/04 09:36:13;;;;;;;;;;;;;;;22.74;74.29;95564.00;5135111;27;1037;-50
2023/06/04 09:38:39;;;;;;;;;;;;;;;22.97;73.40;95559.75;5135314;27;1024;-49
2023/06/04 09:41:11;;;;;;;;;;;;;;;23.33;73.61;95555.31;5135219;27;961;-50
2023/06/04 09:43:37;;;;;;;;;;;;;;;23.64;71.94;95553.38;5135021;27;1887;-50
2023/06/04 09:46:16;;;;;;;;;;;;;;;23.46;72.82;95552.41;5134883;27;1215;-51
2023/06/04 09:48:42;;;;;;;;;;;;;;;23.38;73.44;95558.19;5114744;28;1072;-50
2023/06/04 09:51:09;;;;;;;;;;;;;;;23.23;71.99;95553.13;5113893;28;1019;-50
2023/06/04 09:53:35;;;;;;;;;;;;;;;22.93;72.26;95551.19;5114148;28;1906;-50
2023/06/04 09:56:03;;;;;;;;;;;;;;;22.80;74.60;95554.94;5114415;28;1024;-50
2023/06/04 09:58:30;;;;;;;;;;;;;;;23.03;74.57;95547.97;5132845;27;1198;-50
2023/06/04 10:00:57;;;;;;;;;;;;;;;23.15;73.53;95545.28;5134164;27;1052;-50
2023/06/04 10:03:33;;;;;;;;;;;;;;;23.50;71.91;95534.50;5134567;27;1079;-50
2023/06/04 10:06:03;;;;;;;;;;;;;;;23.49;75.34;95535.56;5134292;27;1257;-50
2023/06/04 10:08:30;;;;;;;;;;;;;;;23.06;73.20;95539.31;5132899;27;2557;-50
2023/06/04 10:11:00;;;;;;;;;;;;;;;22.77;73.40;95541.75;5134386;27;1016;-50
2023/06/04 10:13:28;;;;;;;;;;;;;;;22.44;74.35;95533.94;5134710;27;1906;-50
2023/06/04 10:15:56;;;;;;;;;;;;;;;22.49;75.71;95533.28;5134657;27;1063;-51
2023/06/04 10:18:23;;;;;;;;;;;;;;;22.64;73.84;95535.63;5134434;27;955;-51
2023/06/04 10:20:49;;;;;;;;;;;;;;;22.84;75.27;95538.94;5134596;27;1074;-51
2023/06/04 10:23:17;;;;;;;;;;;;;;;23.04;73.24;95532.44;5134348;27;1008;-51
2023/06/04 10:25:44;;;;;;;;;;;;;;;23.21;73.95;95527.16;5133128;27;2472;-51
2023/06/04 10:28:11;;;;;;;;;;;;;;;23.14;73.15;95530.78;5132239;27;2903;-52
2023/06/04 10:30:37;;;;;;;;;;;;;;;23.19;74.74;95527.41;5134441;27;1052;-52
2023/06/04 10:33:03;;;;;;;;;;;;;;;23.11;74.77;95523.09;5134526;27;1056;-51
2023/06/04 10:35:35;;;;;;;;;;;;;;;22.94;74.21;95522.03;5134122;27;1905;-51
2023/06/04 10:38:08;;;;;;;;;;;;;;;23.02;75.16;95519.00;5133858;27;1027;-51
2023/06/04 10:40:35;;;;;;;;;;;;;;;23.03;72.59;95522.53;5134308;28;973;-51
2023/06/04 10:43:04;;;;;;;;;;;;;;;22.84;71.50;95521.72;5134290;28;1055;-52
2023/06/04 10:45:30;;;;;;;;;;;;;;;22.63;76.72;95526.59;5134361;28;1023;-52
2023/06/04 10:48:03;;;;;;;;;;;;;;;22.48;76.14;95532.44;5133950;28;1250;-52
2023/06/04 10:50:29;;;;;;;;;;;;;;;22.48;77.90;95534.31;5134698;28;992;-52
2023/06/04 10:52:57;;;;;;;;;;;;;;;22.42;72.70;95528.72;5134080;28;1048;-52
2023/06/04 10:55:23;;;;;;;;;;;;;;;22.38;71.67;95524.78;5134133;28;1910;-52
2023/06/04 10:57:55;;;;;;;;;;;;;;;22.51;73.30;95528.44;5133869;28;1148;-52
2023/06/04 11:00:22;;;;;;;;;;;;;;;22.57;77.76;95527.50;5134282;28;1028;-52
2023/06/04 11:02:55;;;;;;;;;;;;;;;22.38;86.40;95530.22;5133608;28;1242;-52
2023/06/04 11:05:21;;;;;;;;;;;;;;;22.17;86.03;95530.63;5133932;28;1051;-52
2023/06/04 11:07:48;;;;;;;;;;;;;;;21.81;88.06;95524.03;5133557;28;1064;-52
2023/06/04 11:10:15;;;;;;;;;;;;;;;21.76;89.80;95523.88;5134056;28;1048;-52
2023/06/04 11:12:50;;;;;;;;;;;;;;;21.72;88.88;95525.38;5134761;27;1040;-52
2023/06/04 11:15:16;;;;;;;;;;;;;;;21.72;92.01;95525.38;5137821;27;1914;-52
2023/06/04 11:17:52;;;;;;;;;;;;;;;21.70;94.33;95522.03;5137473;27;1112;-52
2023/06/04 11:20:19;;;;;;;;;;;;;;;21.74;94.17;95521.38;5137987;27;949;-52
2023/06/04 11:22:58;;;;;;;;;;;;;;;21.80;94.31;95516.94;5137825;27;944;-54
2023/06/04 11:25:25;;;;;;;;;;;;;;;21.72;95.86;95512.63;5137385;27;1112;-52
2023/06/04 11:27:52;;;;;;;;;;;;;;;21.89;95.97;95507.41;5119725;27;1154;-51
2023/06/04 11:30:18;;;;;;;;;;;;;;;22.01;91.71;95508.38;5137620;27;968;-52
2023/06/04 11:32:45;;;;;;;;;;;;;;;22.20;92.97;95505.69;5136898;27;1971;-53
2023/06/04 11:35:11;;;;;;;;;;;;;;;22.48;89.78;95509.78;5137477;27;1917;-52
2023/06/04 11:37:37;;;;;;;;;;;;;;;22.77;91.99;95517.22;5137267;27;1870;-52
2023/06/04 11:40:26;;;;;;;;;;;;;;;22.83;91.58;95512.75;5137349;27;1072;-52
2023/06/04 11:42:53;;;;;;;;;;;;;;;22.85;90.12;95509.78;5119591;27;970;-52
2023/06/04 11:45:20;;;;;;;;;;;;;;;22.78;89.61;95521.63;5137609;27;1024;-52
2023/06/04 11:47:48;;;;;;;;;;;;;;;22.67;91.04;95533.28;5137270;27;1300;-52
2023/06/04 11:50:15;;;;;;;;;;;;;;;22.55;82.71;95535.91;5135896;27;2880;-52
2023/06/04 11:52:41;;;;;;;;;;;;;;;22.49;84.45;95536.00;5137487;27;964;-52
2023/06/04 11:55:09;;;;;;;;;;;;;;;22.48;84.89;95531.59;5136938;27;1988;-52
2023/06/04 11:57:36;;;;;;;;;;;;;;;22.40;83.64;95530.84;5137198;27;1058;-52
2023/06/04 12:00:02;;;;;;;;;;;;;;;22.22;84.73;95525.34;5137102;27;1972;-52
2023/06/04 12:02:28;;;;;;;;;;;;;;;22.14;82.06;95528.34;5137020;27;1186;-52
2023/06/04 12:04:54;;;;;;;;;;;;;;;22.10;84.26;95533.44;5137046;27;1040;-51
2023/06/04 12:07:24;;;;;;;;;;;;;;;22.00;86.62;95527.63;5135696;27;1345;-51
2023/06/04 12:09:50;;;;;;;;;;;;;;;22.11;87.72;95535.06;5137295;27;1264;-50
2023/06/04 12:12:21;;;;;;;;;;;;;;;22.12;90.94;95531.31;5136602;27;969;-51
2023/06/04 12:14:47;;;;;;;;;;;;;;;22.07;93.17;95533.03;5137048;27;1889;-50
2023/06/04 12:17:13;;;;;;;;;;;;;;;22.06;93.65;95529.47;5136060;27;1107;-50
2023/06/04 12:19:48;;;;;;;;;;;;;;;21.88;96.45;95530.25;5135982;27;1047;-51
2023/06/04 12:22:14;;;;;;;;;;;;;;;21.74;95.55;95543.16;5137078;27;1009;-51
2023/06/04 12:24:48;;;;;;;;;;;;;;;21.63;93.39;95536.53;5136396;27;1039;-50
2023/06/04 12:27:15;;;;;;;;;;;;;;;21.47;94.58;95541.69;5136540;27;1035;-51
2023/06/04 12:29:41;;;;;;;;;;;;;;;21.48;96.64;95555.06;5136733;27;1035;-51
2023/06/04 12:32:08;;;;;;;;;;;;;;;21.48;94.85;95554.25;5123272;27;2535;-51
2023/06/04 12:34:34;;;;;;;;;;;;;;;21.42;94.21;95553.19;5115847;28;1997;-51
2023/06/04 12:37:02;;;;;;;;;;;;;;;21.32;93.17;95545.50;5116605;27;1104;-51
2023/06/04 12:39:29;;;;;;;;;;;;;;;21.37;93.15;95550.28;5135089;27;2528;-51
2023/06/04 12:41:55;;;;;;;;;;;;;;;21.33;92.57;95546.34;5115757;27;2828;-51
2023/06/04 12:44:21;;;;;;;;;;;;;;;21.30;93.22;95539.44;5115680;28;1513;-51
2023/06/04 12:46:47;;;;;;;;;;;;;;;21.38;95.29;95543.78;5122999;27;1235;-51
2023/06/04 12:49:14;;;;;;;;;;;;;;;21.43;92.82;95541.25;5135898;27;1313;-51
2023/06/04 12:51:40;;;;;;;;;;;;;;;21.48;95.37;95540.63;5136018;27;1028;-51
2023/06/04 12:54:06;;;;;;;;;;;;;;;21.52;94.27;95539.13;5135881;27;1914;-51
2023/06/04 12:56:32;;;;;;;;;;;;;;;21.57;95.56;95550.19;5136316;27;1024;-51